sensor_id;sensor_type;location;lat;lon;timestamp;pressure;altitude;pressure_sealevel;temperature;humidity
43878;BME280;29815;48.184;11.268;2023-07-13T00:00:41;95548.44;;;17.69;100.00
43878;BME280;29815;48.184;11.268;2023-07-13T00:03:10;95548.44;;;17.69;100.00
43878;BME280;29815;48.184;11.268;2023-07-13T00:05:41;95551.97;;;17.70;100.00
43878;BME280;29815;48.184;11.268;2023-07-13T00:08:11;95544.22;;;17.63;100.00
43878;BME280;29815;48.184;11.268;2023-07-13T00:10:41;95535.09;;;17.59;100.00
43878;BME280;29815;48.184;11.268;2023-07-13T00:13:11;95538.44;;;17.56;100.00
43878;BME280;29815;48.184;11.268;2023-07-13T00:15:42;95534.59;;;17.57;100.00
43878;BME280;29815;48.184;11.268;2023-07-13T00:18:11;95536.50;;;17.56;100.00
43878;BME280;29815;48.184;11.268;2023-07-13T00:20:41;95541.47;;;17.54;100.00
43878;BME280;29815;48.184;11.268;2023-07-13T00:23:11;95535.22;;;17.54;100.00
43878;BME280;29815;48.184;11.268;2023-07-13T00:25:41;95527.84;;;17.54;100.00
43878;BME280;29815;48.184;11.268;2023-07-13T00:28:10;95524.19;;;17.59;100.00
43878;BME280;29815;48.184;11.268;2023-07-13T00:30:41;95530.56;;;17.54;100.00
43878;BME280;29815;48.184;11.268;2023-07-13T00:33:12;95532.50;;;17.54;100.00
43878;BME280;29815;48.184;11.268;2023-07-13T00:35:45;95529.28;;;17.52;100.00
43878;BME280;29815;48.184;11.268;2023-07-13T00:38:16;95531.56;;;17.58;100.00
43878;BME280;29815;48.184;11.268;2023-07-13T00:40:47;95528.84;;;17.58;100.00
43878;BME280;29815;48.184;11.268;2023-07-13T00:43:19;95535.38;;;17.57;100.00
43878;BME280;29815;48.184;11.268;2023-07-13T00:46:20;95538.75;;;17.54;100.00
43878;BME280;29815;48.184;11.268;2023-07-13T00:48:57;95536.63;;;17.51;100.00
43878;BME280;29815;48.184;11.268;2023-07-13T00:51:35;95537.78;;;17.50;100.00
43878;BME280;29815;48.184;11.268;2023-07-13T00:54:14;95539.22;;;17.48;100.00
43878;BME280;29815;48.184;11.268;2023-07-13T00:56:47;95540.81;;;17.49;100.00
43878;BME280;29815;48.184;11.268;2023-07-13T00:59:19;95533.28;;;17.46;100.00
43878;BME280;29815;48.184;11.268;2023-07-13T01:01:51;95528.81;;;17.50;100.00
43878;BME280;29815;48.184;11.268;2023-07-13T01:04:24;95532.66;;;17.49;100.00
43878;BME280;29815;48.184;11.268;2023-07-13T01:06:54;95536.00;;;17.46;100.00
43878;BME280;29815;48.184;11.268;2023-07-13T01:09:26;95536.81;;;17.55;100.00
43878;BME280;29815;48.184;11.268;2023-07-13T01:11:57;95534.91;;;17.55;100.00
43878;BME280;29815;48.184;11.268;2023-07-13T01:14:27;95535.53;;;17.52;100.00
43878;BME280;29815;48.184;11.268;2023-07-13T01:16:59;95532.34;;;17.59;100.00
43878;BME280;29815;48.184;11.268;2023-07-13T01:19:36;95529.78;;;17.54;100.00
43878;BME280;29815;48.184;11.268;2023-07-13T01:22:12;95524.81;;;17.56;100.00
43878;BME280;29815;48.184;11.268;2023-07-13T01:24:45;95525.00;;;17.59;100.00
43878;BME280;29815;48.184;11.268;2023-07-13T01:27:21;95525.00;;;17.59;100.00
43878;BME280;29815;48.184;11.268;2023-07-13T01:29:53;95513.94;;;17.56;100.00
43878;BME280;29815;48.184;11.268;2023-07-13T01:32:32;95512.81;;;17.57;100.00
43878;BME280;29815;48.184;11.268;2023-07-13T01:35:03;95508.50;;;17.56;100.00
43878;BME280;29815;48.184;11.268;2023-07-13T01:37:35;95504.50;;;17.62;100.00
43878;BME280;29815;48.184;11.268;2023-07-13T01:40:06;95504.03;;;17.60;100.00
43878;BME280;29815;48.184;11.268;2023-07-13T01:42:37;95510.59;;;17.59;100.00
43878;BME280;29815;48.184;11.268;2023-07-13T01:45:07;95509.97;;;17.62;100.00
43878;BME280;29815;48.184;11.268;2023-07-13T01:47:37;95507.44;;;17.66;100.00
43878;BME280;29815;48.184;11.268;2023-07-13T01:50:08;95511.94;;;17.70;100.00
43878;BME280;29815;48.184;11.268;2023-07-13T01:52:40;95517.00;;;17.63;100.00
43878;BME280;29815;48.184;11.268;2023-07-13T01:55:09;95525.81;;;17.60;100.00
43878;BME280;29815;48.184;11.268;2023-07-13T01:57:39;95523.22;;;17.55;100.00
43878;BME280;29815;48.184;11.268;2023-07-13T02:00:11;95527.22;;;17.49;100.00
43878;BME280;29815;48.184;11.268;2023-07-13T02:02:42;95521.78;;;17.49;100.00
43878;BME280;29815;48.184;11.268;2023-07-13T02:05:14;95528.63;;;17.46;100.00
43878;BME280;29815;48.184;11.268;2023-07-13T02:07:45;95524.31;;;17.45;100.00
43878;BME280;29815;48.184;11.268;2023-07-13T02:10:15;95521.09;;;17.43;100.00
43878;BME280;29815;48.184;11.268;2023-07-13T02:12:47;95520.59;;;17.41;100.00
43878;BME280;29815;48.184;11.268;2023-07-13T02:15:18;95529.56;;;17.42;100.00
43878;BME280;29815;48.184;11.268;2023-07-13T02:17:47;95537.59;;;17.47;100.00
43878;BME280;29815;48.184;11.268;2023-07-13T02:20:17;95543.97;;;17.42;100.00
43878;BME280;29815;48.184;11.268;2023-07-13T02:22:48;95554.69;;;17.39;100.00
43878;BME280;29815;48.184;11.268;2023-07-13T02:25:20;95568.28;;;17.39;100.00
43878;BME280;29815;48.184;11.268;2023-07-13T02:27:50;95580.09;;;17.34;100.00
43878;BME280;29815;48.184;11.268;2023-07-13T02:30:19;95564.88;;;17.33;100.00
43878;BME280;29815;48.184;11.268;2023-07-13T02:32:51;95580.84;;;17.26;100.00
43878;BME280;29815;48.184;11.268;2023-07-13T02:35:20;95588.84;;;17.22;100.00
43878;BME280;29815;48.184;11.268;2023-07-13T02:37:51;95576.97;;;17.18;100.00
43878;BME280;29815;48.184;11.268;2023-07-13T02:40:21;95572.78;;;17.12;100.00
43878;BME280;29815;48.184;11.268;2023-07-13T02:42:52;95582.97;;;17.07;100.00
43878;BME280;29815;48.184;11.268;2023-07-13T02:45:22;95582.28;;;17.01;100.00
43878;BME280;29815;48.184;11.268;2023-07-13T02:47:51;95593.56;;;16.86;100.00
43878;BME280;29815;48.184;11.268;2023-07-13T02:50:21;95591.88;;;16.76;100.00
43878;BME280;29815;48.184;11.268;2023-07-13T02:52:52;95585.88;;;16.66;100.00
43878;BME280;29815;48.184;11.268;2023-07-13T02:55:22;95580.03;;;16.58;100.00
43878;BME280;29815;48.184;11.268;2023-07-13T02:57:51;95583.34;;;16.55;100.00
43878;BME280;29815;48.184;11.268;2023-07-13T03:00:22;95581.84;;;16.49;100.00
43878;BME280;29815;48.184;11.268;2023-07-13T03:02:52;95587.09;;;16.46;100.00
43878;BME280;29815;48.184;11.268;2023-07-13T03:05:26;95579.56;;;16.43;100.00
43878;BME280;29815;48.184;11.268;2023-07-13T03:07:59;95581.31;;;16.39;100.00
43878;BME280;29815;48.184;11.268;2023-07-13T03:10:30;95590.88;;;16.36;100.00
43878;BME280;29815;48.184;11.268;2023-07-13T03:13:00;95588.75;;;16.33;100.00
43878;BME280;29815;48.184;11.268;2023-07-13T03:15:30;95593.38;;;16.33;100.00
43878;BME280;29815;48.184;11.268;2023-07-13T03:18:00;95592.06;;;16.30;100.00
43878;BME280;29815;48.184;11.268;2023-07-13T03:20:33;95595.91;;;16.29;100.00
43878;BME280;29815;48.184;11.268;2023-07-13T03:23:04;95604.34;;;16.28;100.00
43878;BME280;29815;48.184;11.268;2023-07-13T03:25:34;95588.25;;;16.31;100.00
43878;BME280;29815;48.184;11.268;2023-07-13T03:28:04;95599.91;;;16.32;100.00
43878;BME280;29815;48.184;11.268;2023-07-13T03:30:34;95601.31;;;16.29;100.00
43878;BME280;29815;48.184;11.268;2023-07-13T03:33:04;95601.53;;;16.33;100.00
43878;BME280;29815;48.184;11.268;2023-07-13T03:35:36;95599.00;;;16.36;100.00
43878;BME280;29815;48.184;11.268;2023-07-13T03:38:11;95606.34;;;16.36;100.00
43878;BME280;29815;48.184;11.268;2023-07-13T03:40:40;95604.44;;;16.36;100.00
43878;BME280;29815;48.184;11.268;2023-07-13T03:43:10;95608.28;;;16.35;100.00
43878;BME280;29815;48.184;11.268;2023-07-13T03:45:39;95613.41;;;16.37;100.00
43878;BME280;29815;48.184;11.268;2023-07-13T03:48:09;95610.69;;;16.37;100.00
43878;BME280;29815;48.184;11.268;2023-07-13T03:50:39;95601.72;;;16.36;100.00
43878;BME280;29815;48.184;11.268;2023-07-13T03:53:10;95616.78;;;16.42;100.00
43878;BME280;29815;48.184;11.268;2023-07-13T03:55:40;95609.44;;;16.43;100.00
43878;BME280;29815;48.184;11.268;2023-07-13T03:58:30;95606.91;;;16.46;100.00
43878;BME280;29815;48.184;11.268;2023-07-13T04:01:10;95613.97;;;16.47;100.00
43878;BME280;29815;48.184;11.268;2023-07-13T04:03:41;95619.09;;;16.49;100.00
43878;BME280;29815;48.184;11.268;2023-07-13T04:06:18;95619.91;;;16.49;100.00
43878;BME280;29815;48.184;11.268;2023-07-13T04:08:54;95622.41;;;16.46;100.00
43878;BME280;29815;48.184;11.268;2023-07-13T04:11:28;95635.00;;;16.42;100.00
43878;BME280;29815;48.184;11.268;2023-07-13T04:14:00;95631.06;;;16.48;100.00
43878;BME280;29815;48.184;11.268;2023-07-13T04:16:30;95630.06;;;16.44;100.00
43878;BME280;29815;48.184;11.268;2023-07-13T04:19:00;95632.78;;;16.44;100.00
43878;BME280;29815;48.184;11.268;2023-07-13T04:21:31;95620.31;;;16.43;100.00
43878;BME280;29815;48.184;11.268;2023-07-13T04:24:02;95619.03;;;16.40;100.00
43878;BME280;29815;48.184;11.268;2023-07-13T04:26:32;95632.97;;;16.47;100.00
43878;BME280;29815;48.184;11.268;2023-07-13T04:29:04;95628.16;;;16.44;100.00
43878;BME280;29815;48.184;11.268;2023-07-13T04:31:34;95627.03;;;16.45;100.00
43878;BME280;29815;48.184;11.268;2023-07-13T04:34:04;95636.31;;;16.44;100.00
43878;BME280;29815;48.184;11.268;2023-07-13T04:36:33;95638.91;;;16.49;100.00
43878;BME280;29815;48.184;11.268;2023-07-13T04:39:07;95636.81;;;16.46;100.00
43878;BME280;29815;48.184;11.268;2023-07-13T04:41:37;95641.44;;;16.46;100.00
43878;BME280;29815;48.184;11.268;2023-07-13T04:44:06;95650.38;;;16.46;100.00
43878;BME280;29815;48.184;11.268;2023-07-13T04:46:36;95649.78;;;16.49;100.00
43878;BME280;29815;48.184;11.268;2023-07-13T04:49:05;95657.13;;;16.49;100.00
43878;BME280;29815;48.184;11.268;2023-07-13T04:51:35;95666.38;;;16.48;100.00
43878;BME280;29815;48.184;11.268;2023-07-13T04:54:06;95661.16;;;16.51;100.00
43878;BME280;29815;48.184;11.268;2023-07-13T04:56:36;95656.53;;;16.52;100.00
43878;BME280;29815;48.184;11.268;2023-07-13T04:59:05;95667.38;;;16.52;100.00
43878;BME280;29815;48.184;11.268;2023-07-13T05:01:35;95669.00;;;16.53;100.00
43878;BME280;29815;48.184;11.268;2023-07-13T05:04:04;95667.88;;;16.54;100.00
43878;BME280;29815;48.184;11.268;2023-07-13T05:06:34;95668.19;;;16.52;100.00
43878;BME280;29815;48.184;11.268;2023-07-13T05:09:03;95672.22;;;16.55;100.00
43878;BME280;29815;48.184;11.268;2023-07-13T05:11:35;95664.56;;;16.57;100.00
43878;BME280;29815;48.184;11.268;2023-07-13T05:14:05;95667.47;;;16.61;100.00
43878;BME280;29815;48.184;11.268;2023-07-13T05:16:34;95670.19;;;16.61;100.00
43878;BME280;29815;48.184;11.268;2023-07-13T05:19:04;95661.75;;;16.62;100.00
43878;BME280;29815;48.184;11.268;2023-07-13T05:21:33;95663.16;;;16.59;100.00
43878;BME280;29815;48.184;11.268;2023-07-13T05:24:03;95656.63;;;16.61;100.00
43878;BME280;29815;48.184;11.268;2023-07-13T05:26:53;95666.38;;;16.62;100.00
43878;BME280;29815;48.184;11.268;2023-07-13T05:29:23;95664.19;;;16.64;100.00
43878;BME280;29815;48.184;11.268;2023-07-13T05:31:53;95661.16;;;16.65;100.00
43878;BME280;29815;48.184;11.268;2023-07-13T05:34:23;95665.06;;;16.73;100.00
43878;BME280;29815;48.184;11.268;2023-07-13T05:36:53;95669.47;;;16.82;100.00
43878;BME280;29815;48.184;11.268;2023-07-13T05:39:22;95666.63;;;16.87;100.00
43878;BME280;29815;48.184;11.268;2023-07-13T05:41:54;95669.91;;;16.98;100.00
43878;BME280;29815;48.184;11.268;2023-07-13T05:44:23;95672.22;;;17.05;100.00
43878;BME280;29815;48.184;11.268;2023-07-13T05:46:53;95670.38;;;17.14;100.00
43878;BME280;29815;48.184;11.268;2023-07-13T05:49:24;95669.94;;;17.20;100.00
43878;BME280;29815;48.184;11.268;2023-07-13T05:51:54;95679.56;;;17.26;100.00
43878;BME280;29815;48.184;11.268;2023-07-13T05:54:24;95678.66;;;17.31;100.00
43878;BME280;29815;48.184;11.268;2023-07-13T05:56:54;95672.59;;;17.34;100.00
43878;BME280;29815;48.184;11.268;2023-07-13T05:59:24;95680.03;;;17.42;100.00
43878;BME280;29815;48.184;11.268;2023-07-13T06:01:54;95683.78;;;17.55;100.00
43878;BME280;29815;48.184;11.268;2023-07-13T06:04:24;95676.78;;;17.63;100.00
43878;BME280;29815;48.184;11.268;2023-07-13T06:06:53;95685.06;;;17.80;100.00
43878;BME280;29815;48.184;11.268;2023-07-13T06:09:23;95685.44;;;17.87;100.00
43878;BME280;29815;48.184;11.268;2023-07-13T06:11:54;95685.97;;;17.98;100.00
43878;BME280;29815;48.184;11.268;2023-07-13T06:14:23;95693.84;;;17.99;100.00
43878;BME280;29815;48.184;11.268;2023-07-13T06:16:53;95701.06;;;18.04;100.00
43878;BME280;29815;48.184;11.268;2023-07-13T06:19:23;95704.59;;;18.04;100.00
43878;BME280;29815;48.184;11.268;2023-07-13T06:21:52;95710.00;;;17.96;100.00
43878;BME280;29815;48.184;11.268;2023-07-13T06:24:24;95713.53;;;17.96;100.00
43878;BME280;29815;48.184;11.268;2023-07-13T06:26:55;95717.47;;;17.90;100.00
43878;BME280;29815;48.184;11.268;2023-07-13T06:29:25;95719.22;;;17.86;100.00
43878;BME280;29815;48.184;11.268;2023-07-13T06:31:55;95736.78;;;17.80;100.00
43878;BME280;29815;48.184;11.268;2023-07-13T06:34:24;95735.34;;;17.74;100.00
43878;BME280;29815;48.184;11.268;2023-07-13T06:36:54;95736.75;;;17.71;100.00
43878;BME280;29815;48.184;11.268;2023-07-13T06:39:24;95730.31;;;17.67;100.00
43878;BME280;29815;48.184;11.268;2023-07-13T06:41:55;95729.22;;;17.68;100.00
43878;BME280;29815;48.184;11.268;2023-07-13T06:44:25;95727.28;;;17.69;100.00
43878;BME280;29815;48.184;11.268;2023-07-13T06:46:54;95732.91;;;17.72;100.00
43878;BME280;29815;48.184;11.268;2023-07-13T06:49:24;95740.78;;;17.74;100.00
43878;BME280;29815;48.184;11.268;2023-07-13T06:51:54;95750.25;;;17.76;100.00
43878;BME280;29815;48.184;11.268;2023-07-13T06:54:24;95753.28;;;17.75;100.00
43878;BME280;29815;48.184;11.268;2023-07-13T06:56:55;95754.41;;;17.74;100.00
43878;BME280;29815;48.184;11.268;2023-07-13T06:59:24;95759.66;;;17.70;100.00
43878;BME280;29815;48.184;11.268;2023-07-13T07:01:54;95747.25;;;17.64;100.00
43878;BME280;29815;48.184;11.268;2023-07-13T07:04:23;95754.09;;;17.62;100.00
43878;BME280;29815;48.184;11.268;2023-07-13T07:06:54;95750.56;;;17.61;100.00
43878;BME280;29815;48.184;11.268;2023-07-13T07:09:26;95755.03;;;17.57;100.00
43878;BME280;29815;48.184;11.268;2023-07-13T07:11:59;95755.63;;;17.54;100.00
43878;BME280;29815;48.184;11.268;2023-07-13T07:14:32;95758.97;;;17.51;100.00
43878;BME280;29815;48.184;11.268;2023-07-13T07:17:03;95760.91;;;17.50;100.00
43878;BME280;29815;48.184;11.268;2023-07-13T07:19:32;95762.03;;;17.49;100.00
43878;BME280;29815;48.184;11.268;2023-07-13T07:22:03;95753.53;;;17.51;100.00
43878;BME280;29815;48.184;11.268;2023-07-13T07:24:33;95755.13;;;17.52;100.00
43878;BME280;29815;48.184;11.268;2023-07-13T07:27:05;95775.50;;;17.54;100.00
43878;BME280;29815;48.184;11.268;2023-07-13T07:29:38;95781.09;;;17.49;100.00
43878;BME280;29815;48.184;11.268;2023-07-13T07:32:13;95777.88;;;17.47;100.00
43878;BME280;29815;48.184;11.268;2023-07-13T07:35:03;95784.84;;;17.40;100.00
43878;BME280;29815;48.184;11.268;2023-07-13T07:37:34;95785.25;;;17.33;100.00
43878;BME280;29815;48.184;11.268;2023-07-13T07:40:08;95791.09;;;17.26;100.00
43878;BME280;29815;48.184;11.268;2023-07-13T07:42:42;95787.22;;;17.19;100.00
43878;BME280;29815;48.184;11.268;2023-07-13T07:45:11;95786.00;;;17.11;100.00
43878;BME280;29815;48.184;11.268;2023-07-13T07:47:41;95788.34;;;17.04;100.00
43878;BME280;29815;48.184;11.268;2023-07-13T07:50:12;95791.84;;;17.05;100.00
43878;BME280;29815;48.184;11.268;2023-07-13T07:52:42;95787.53;;;17.04;100.00
43878;BME280;29815;48.184;11.268;2023-07-13T07:55:12;95800.53;;;17.07;100.00
43878;BME280;29815;48.184;11.268;2023-07-13T07:57:46;95802.94;;;17.08;100.00
43878;BME280;29815;48.184;11.268;2023-07-13T08:00:19;95798.41;;;17.04;100.00
43878;BME280;29815;48.184;11.268;2023-07-13T08:02:52;95800.63;;;17.02;100.00
43878;BME280;29815;48.184;11.268;2023-07-13T08:05:25;95787.72;;;17.07;100.00
43878;BME280;29815;48.184;11.268;2023-07-13T08:08:10;95798.69;;;17.16;100.00
43878;BME280;29815;48.184;11.268;2023-07-13T08:10:40;95812.56;;;17.28;100.00
43878;BME280;29815;48.184;11.268;2023-07-13T08:13:11;95808.72;;;17.43;100.00
43878;BME280;29815;48.184;11.268;2023-07-13T08:15:41;95808.53;;;17.62;100.00
43878;BME280;29815;48.184;11.268;2023-07-13T08:18:11;95803.59;;;17.77;100.00
43878;BME280;29815;48.184;11.268;2023-07-13T08:20:43;95807.28;;;18.04;100.00
43878;BME280;29815;48.184;11.268;2023-07-13T08:23:13;95815.13;;;18.27;100.00
43878;BME280;29815;48.184;11.268;2023-07-13T08:25:51;95811.63;;;18.36;100.00
43878;BME280;29815;48.184;11.268;2023-07-13T08:28:23;95814.84;;;18.38;100.00
43878;BME280;29815;48.184;11.268;2023-07-13T08:30:52;95821.41;;;18.37;100.00
43878;BME280;29815;48.184;11.268;2023-07-13T08:33:22;95819.78;;;18.36;100.00
43878;BME280;29815;48.184;11.268;2023-07-13T08:35:53;95823.78;;;18.30;100.00
43878;BME280;29815;48.184;11.268;2023-07-13T08:38:22;95826.50;;;18.30;100.00
43878;BME280;29815;48.184;11.268;2023-07-13T08:40:54;95822.00;;;18.25;100.00
43878;BME280;29815;48.184;11.268;2023-07-13T08:43:30;95827.25;;;18.21;100.00
43878;BME280;29815;48.184;11.268;2023-07-13T08:46:09;95827.25;;;18.21;100.00
43878;BME280;29815;48.184;11.268;2023-07-13T08:48:46;95822.81;;;18.25;100.00
43878;BME280;29815;48.184;11.268;2023-07-13T08:51:29;95818.69;;;18.37;100.00
43878;BME280;29815;48.184;11.268;2023-07-13T08:54:10;95825.91;;;18.41;100.00
43878;BME280;29815;48.184;11.268;2023-07-13T08:56:46;95821.28;;;18.42;100.00
43878;BME280;29815;48.184;11.268;2023-07-13T08:59:20;95818.41;;;18.47;100.00
43878;BME280;29815;48.184;11.268;2023-07-13T09:02:05;95822.22;;;18.59;100.00
43878;BME280;29815;48.184;11.268;2023-07-13T09:04:49;95822.13;;;18.82;100.00
43878;BME280;29815;48.184;11.268;2023-07-13T09:07:30;95820.72;;;18.93;100.00
43878;BME280;29815;48.184;11.268;2023-07-13T09:10:15;95819.31;;;19.04;100.00
43878;BME280;29815;48.184;11.268;2023-07-13T09:12:59;95829.59;;;19.07;100.00
43878;BME280;29815;48.184;11.268;2023-07-13T09:15:40;95828.63;;;19.03;100.00
43878;BME280;29815;48.184;11.268;2023-07-13T09:18:18;95833.28;;;19.03;100.00
43878;BME280;29815;48.184;11.268;2023-07-13T09:20:55;95826.19;;;19.02;100.00
43878;BME280;29815;48.184;11.268;2023-07-13T09:23:29;95827.19;;;19.06;100.00
43878;BME280;29815;48.184;11.268;2023-07-13T09:26:02;95830.09;;;19.09;100.00
43878;BME280;29815;48.184;11.268;2023-07-13T09:28:39;95823.50;;;19.10;100.00
43878;BME280;29815;48.184;11.268;2023-07-13T09:31:16;95835.84;;;19.08;100.00
43878;BME280;29815;48.184;11.268;2023-07-13T09:33:50;95836.00;;;19.03;100.00
43878;BME280;29815;48.184;11.268;2023-07-13T09:36:25;95831.84;;;19.05;100.00
43878;BME280;29815;48.184;11.268;2023-07-13T09:39:02;95828.16;;;19.10;100.00
43878;BME280;29815;48.184;11.268;2023-07-13T09:41:41;95832.50;;;19.19;100.00
43878;BME280;29815;48.184;11.268;2023-07-13T09:44:17;95830.78;;;19.32;100.00
43878;BME280;29815;48.184;11.268;2023-07-13T09:46:54;95829.19;;;19.48;100.00
43878;BME280;29815;48.184;11.268;2023-07-13T13:48:55;95769.81;;;25.71;50.74
43878;BME280;29815;48.184;11.268;2023-07-13T13:51:26;95765.03;;;25.68;47.79
43878;BME280;29815;48.184;11.268;2023-07-13T13:53:56;95766.53;;;26.04;49.90
43878;BME280;29815;48.184;11.268;2023-07-13T13:56:26;95773.72;;;26.09;48.98
43878;BME280;29815;48.184;11.268;2023-07-13T13:58:55;95769.81;;;26.10;48.82
43878;BME280;29815;48.184;11.268;2023-07-13T14:01:25;95766.47;;;26.20;50.21
43878;BME280;29815;48.184;11.268;2023-07-13T14:03:56;95771.41;;;26.11;48.16
43878;BME280;29815;48.184;11.268;2023-07-13T14:06:27;95761.09;;;26.08;50.11
43878;BME280;29815;48.184;11.268;2023-07-13T14:08:57;95755.50;;;26.43;50.82
43878;BME280;29815;48.184;11.268;2023-07-13T14:11:27;95767.78;;;26.68;48.55
43878;BME280;29815;48.184;11.268;2023-07-13T14:13:59;95749.38;;;26.76;50.20
43878;BME280;29815;48.184;11.268;2023-07-13T14:16:32;95756.94;;;27.28;50.23
43878;BME280;29815;48.184;11.268;2023-07-13T14:19:03;95755.97;;;27.70;47.67
43878;BME280;29815;48.184;11.268;2023-07-13T14:21:33;95746.59;;;27.78;46.93
43878;BME280;29815;48.184;11.268;2023-07-13T14:24:03;95748.63;;;27.54;46.45
43878;BME280;29815;48.184;11.268;2023-07-13T14:26:39;95748.25;;;27.56;45.67
43878;BME280;29815;48.184;11.268;2023-07-13T14:29:16;95756.16;;;27.27;44.31
43878;BME280;29815;48.184;11.268;2023-07-13T14:31:52;95756.19;;;27.31;47.74
43878;BME280;29815;48.184;11.268;2023-07-13T14:34:23;95760.13;;;27.30;44.81
43878;BME280;29815;48.184;11.268;2023-07-13T14:36:53;95746.03;;;27.12;46.22
43878;BME280;29815;48.184;11.268;2023-07-13T14:39:24;95749.28;;;27.18;46.65
43878;BME280;29815;48.184;11.268;2023-07-13T14:41:56;95761.50;;;26.94;46.93
43878;BME280;29815;48.184;11.268;2023-07-13T14:44:30;95753.16;;;27.13;48.63
43878;BME280;29815;48.184;11.268;2023-07-13T14:47:04;95760.44;;;27.25;46.00
43878;BME280;29815;48.184;11.268;2023-07-13T14:49:38;95751.78;;;26.77;44.98
43878;BME280;29815;48.184;11.268;2023-07-13T14:52:13;95760.81;;;26.55;47.29
43878;BME280;29815;48.184;11.268;2023-07-13T14:54:44;95749.25;;;26.69;47.22
43878;BME280;29815;48.184;11.268;2023-07-13T14:57:16;95743.91;;;26.79;46.78
43878;BME280;29815;48.184;11.268;2023-07-13T14:59:48;95745.97;;;26.86;47.17
43878;BME280;29815;48.184;11.268;2023-07-13T15:02:27;95741.09;;;26.99;46.28
43878;BME280;29815;48.184;11.268;2023-07-13T15:05:00;95728.88;;;26.77;46.53
43878;BME280;29815;48.184;11.268;2023-07-13T15:07:31;95747.50;;;26.83;47.17
43878;BME280;29815;48.184;11.268;2023-07-13T15:10:08;95738.97;;;26.92;47.16
43878;BME280;29815;48.184;11.268;2023-07-13T15:12:42;95741.09;;;26.76;46.27
43878;BME280;29815;48.184;11.268;2023-07-13T15:15:12;95738.56;;;26.67;46.42
43878;BME280;29815;48.184;11.268;2023-07-13T15:17:45;95732.38;;;26.74;47.18
43878;BME280;29815;48.184;11.268;2023-07-13T15:20:23;95741.63;;;26.85;48.40
43878;BME280;29815;48.184;11.268;2023-07-13T15:22:57;95734.88;;;27.05;48.55
43878;BME280;29815;48.184;11.268;2023-07-13T15:25:30;95729.34;;;26.59;45.60
43878;BME280;29815;48.184;11.268;2023-07-13T15:28:01;95740.34;;;26.56;48.74
43878;BME280;29815;48.184;11.268;2023-07-13T15:30:40;95737.28;;;26.61;48.08
43878;BME280;29815;48.184;11.268;2023-07-13T15:33:15;95741.88;;;26.53;48.50
43878;BME280;29815;48.184;11.268;2023-07-13T15:35:47;95739.88;;;26.50;47.33
43878;BME280;29815;48.184;11.268;2023-07-13T15:38:19;95743.22;;;26.63;48.41
43878;BME280;29815;48.184;11.268;2023-07-13T15:40:50;95741.19;;;26.60;47.06
43878;BME280;29815;48.184;11.268;2023-07-13T15:43:21;95736.38;;;26.76;48.68
43878;BME280;29815;48.184;11.268;2023-07-13T15:45:51;95734.03;;;26.78;47.82
43878;BME280;29815;48.184;11.268;2023-07-13T15:48:23;95738.19;;;26.91;48.02
43878;BME280;29815;48.184;11.268;2023-07-13T15:51:04;95733.13;;;26.71;46.11
43878;BME280;29815;48.184;11.268;2023-07-13T15:53:35;95742.66;;;26.54;47.96
43878;BME280;29815;48.184;11.268;2023-07-13T15:56:20;95733.47;;;26.46;48.52
43878;BME280;29815;48.184;11.268;2023-07-13T15:58:53;95738.50;;;26.41;47.77
43878;BME280;29815;48.184;11.268;2023-07-13T16:01:24;95733.13;;;26.28;50.09
43878;BME280;29815;48.184;11.268;2023-07-13T16:03:56;95740.22;;;26.29;48.66
43878;BME280;29815;48.184;11.268;2023-07-13T16:06:30;95748.03;;;26.24;48.46
43878;BME280;29815;48.184;11.268;2023-07-13T16:09:04;95746.22;;;26.12;47.49
43878;BME280;29815;48.184;11.268;2023-07-13T16:11:37;95747.03;;;25.74;47.58
43878;BME280;29815;48.184;11.268;2023-07-13T16:14:11;95743.78;;;25.69;49.64
43878;BME280;29815;48.184;11.268;2023-07-13T16:16:43;95746.00;;;25.82;48.70
43878;BME280;29815;48.184;11.268;2023-07-13T16:19:14;95748.22;;;25.57;49.50
43878;BME280;29815;48.184;11.268;2023-07-13T16:21:47;95743.34;;;25.51;49.67
43878;BME280;29815;48.184;11.268;2023-07-13T16:24:21;95742.25;;;25.36;50.74
43878;BME280;29815;48.184;11.268;2023-07-13T16:26:53;95744.66;;;25.22;50.17
43878;BME280;29815;48.184;11.268;2023-07-13T16:29:27;95744.09;;;25.13;50.12
43878;BME280;29815;48.184;11.268;2023-07-13T16:32:00;95747.44;;;24.90;50.18
43878;BME280;29815;48.184;11.268;2023-07-13T16:34:32;95744.72;;;24.75;51.15
43878;BME280;29815;48.184;11.268;2023-07-13T16:37:13;95747.38;;;24.71;52.26
43878;BME280;29815;48.184;11.268;2023-07-13T16:39:49;95746.69;;;24.58;51.86
43878;BME280;29815;48.184;11.268;2023-07-13T16:42:23;95758.56;;;24.62;50.93
43878;BME280;29815;48.184;11.268;2023-07-13T16:44:53;95760.94;;;24.64;50.56
43878;BME280;29815;48.184;11.268;2023-07-13T16:47:25;95748.34;;;24.47;50.70
43878;BME280;29815;48.184;11.268;2023-07-13T16:49:54;95762.00;;;24.44;50.67
43878;BME280;29815;48.184;11.268;2023-07-13T16:52:27;95762.44;;;24.30;51.33
43878;BME280;29815;48.184;11.268;2023-07-13T16:54:57;95763.88;;;24.12;51.63
43878;BME280;29815;48.184;11.268;2023-07-13T16:57:31;95759.84;;;23.93;51.85
43878;BME280;29815;48.184;11.268;2023-07-13T17:00:08;95773.63;;;23.81;53.02
43878;BME280;29815;48.184;11.268;2023-07-13T17:02:46;95765.53;;;23.73;53.66
43878;BME280;29815;48.184;11.268;2023-07-13T17:05:16;95767.41;;;23.56;54.52
43878;BME280;29815;48.184;11.268;2023-07-13T17:07:48;95767.28;;;23.53;53.94